Impacts METAR Board
IDs:

KEWR - Newark Intl, NJ, US

Updated at: 1600 UTC 20 Aug 2019
Potential Impact None Slight Moderate High
Time 20/04Z 20/05Z 20/06Z 20/07Z 20/08Z 20/09Z 20/10Z 20/11Z 20/12Z 20/13Z 20/14Z 20/15Z 20/16Z
Temp79 78 76 75 76 77 76 75 78 80 82 84 85
Dewpt71 71 70 69 70 69 68 68 66 67 66 65 63
Altim30.00 30.01 30.02 30.02 30.02 30.04 30.06 30.09 30.10 30.10 30.10 30.10 30.09
VIS10 10 10 10 10 10 10 10 10 10 10 10 10
CIG-- -- -- 250 250 250 250 250 250 250 250 -- --
CoverSCTSCTSCTBKNBKNBKNBKNBKNBKNBKNBKNSCTSCT
FltCatVFRVFRVFRVFRVFRVFRVFRVFRVFRVFRVFRVFRVFR
WX--------------------------
WDir250280230240300320360102010200140
WSpd7 7 4 4 3 3 9 8 11 8 7 0 4
WGst-- -- -- -- -- -- -- -- -- -- -- -- --
Raw hourly METARs
KEWR 200351Z 25007KT 10SM SCT250 26/22 A3000 RMK AO2 SLP160 T02610217
KEWR 200451Z 28007KT 10SM SCT250 26/22 A3001 RMK AO2 SLP160 T02560217 403440228
KEWR 200551Z 23004KT 10SM SCT250 24/21 A3002 RMK AO2 SLP164 T02440211 10272 20244 53006
KEWR 200651Z 24004KT 10SM BKN250 24/21 A3002 RMK AO2 SLP165 T02390206
KEWR 200751Z 30003KT 10SM BKN250 24/21 A3002 RMK AO2 SLP167 T02440211
KEWR 200851Z 32003KT 10SM BKN250 25/21 A3004 RMK AO2 SLP172 T02500206 53008
KEWR 200951Z 36009KT 10SM BKN250 24/20 A3006 RMK AO2 SLP180 T02440200
KEWR 201051Z 01008KT 10SM BKN250 24/20 A3009 RMK AO2 SLP189 T02390200
KEWR 201151Z 02011KT 10SM BKN250 26/19 A3010 RMK AO2 SLP191 T02560189 10256 20233 51019
KEWR 201251Z 01008KT 10SM BKN250 27/19 A3010 RMK AO2 SLP193 T02670194
KEWR 201351Z 02007KT 10SM BKN250 28/19 A3010 RMK AO2 SLP192 T02780189
KEWR 201451Z 00000KT 10SM FEW035 SCT250 29/18 A3010 RMK AO2 SLP192 T02890183 51001
KEWR 201551Z 14004KT 10SM SCT040 SCT250 29/17 A3009 RMK AO2 SLP189 T02940172



Page loaded:  16:42 UTC  |   09:42 AM Pacific  |   10:42 AM Mountain  |   11:42 AM Central  |   12:42 PM Eastern

 

ADVISORIES

FORECASTS

FORECASTS

OBSERVATIONS

USER TOOLS

ABOUT US